sensor_id;sensor_type;location;lat;lon;timestamp;P1;durP1;ratioP1;P2;durP2;ratioP2
57752;SDS011;43583;53.132;6.574;2023-04-24T00:00:05;5.10;;;2.33;;
57752;SDS011;43583;53.132;6.574;2023-04-24T00:02:31;4.43;;;2.50;;
57752;SDS011;43583;53.132;6.574;2023-04-24T00:04:58;4.63;;;2.15;;
57752;SDS011;43583;53.132;6.574;2023-04-24T00:07:28;5.50;;;2.45;;
57752;SDS011;43583;53.132;6.574;2023-04-24T00:09:54;3.90;;;2.25;;
57752;SDS011;43583;53.132;6.574;2023-04-24T00:12:19;2.50;;;2.22;;
57752;SDS011;43583;53.132;6.574;2023-04-24T00:14:45;2.13;;;1.40;;
57752;SDS011;43583;53.132;6.574;2023-04-24T00:17:10;4.95;;;1.80;;
57752;SDS011;43583;53.132;6.574;2023-04-24T00:19:36;1.23;;;0.60;;
57752;SDS011;43583;53.132;6.574;2023-04-24T00:22:02;1.00;;;0.40;;
57752;SDS011;43583;53.132;6.574;2023-04-24T00:24:28;2.28;;;0.10;;
57752;SDS011;43583;53.132;6.574;2023-04-24T00:26:54;0.50;;;0.10;;
57752;SDS011;43583;53.132;6.574;2023-04-24T00:29:19;0.77;;;0.20;;
57752;SDS011;43583;53.132;6.574;2023-04-24T00:31:45;0.30;;;0.10;;
57752;SDS011;43583;53.132;6.574;2023-04-24T00:34:10;1.38;;;0.10;;
57752;SDS011;43583;53.132;6.574;2023-04-24T00:36:36;0.55;;;0.10;;
57752;SDS011;43583;53.132;6.574;2023-04-24T00:39:02;0.20;;;0.00;;
57752;SDS011;43583;53.132;6.574;2023-04-24T00:41:28;0.20;;;0.10;;
57752;SDS011;43583;53.132;6.574;2023-04-24T00:43:54;0.22;;;0.05;;
57752;SDS011;43583;53.132;6.574;2023-04-24T00:46:20;0.85;;;0.20;;
57752;SDS011;43583;53.132;6.574;2023-04-24T00:48:46;1.48;;;0.10;;
57752;SDS011;43583;53.132;6.574;2023-04-24T00:51:12;0.73;;;0.13;;
57752;SDS011;43583;53.132;6.574;2023-04-24T00:53:37;0.43;;;0.10;;
57752;SDS011;43583;53.132;6.574;2023-04-24T00:56:03;0.40;;;0.20;;
57752;SDS011;43583;53.132;6.574;2023-04-24T00:58:30;0.35;;;0.13;;
57752;SDS011;43583;53.132;6.574;2023-04-24T01:00:56;0.43;;;0.10;;
57752;SDS011;43583;53.132;6.574;2023-04-24T01:03:24;0.17;;;0.10;;
57752;SDS011;43583;53.132;6.574;2023-04-24T01:05:54;0.30;;;0.10;;
57752;SDS011;43583;53.132;6.574;2023-04-24T01:08:19;0.30;;;0.10;;
57752;SDS011;43583;53.132;6.574;2023-04-24T01:10:48;1.95;;;0.10;;
57752;SDS011;43583;53.132;6.574;2023-04-24T01:13:16;0.32;;;0.13;;
57752;SDS011;43583;53.132;6.574;2023-04-24T01:15:44;0.30;;;0.10;;
57752;SDS011;43583;53.132;6.574;2023-04-24T01:18:10;0.30;;;0.10;;
57752;SDS011;43583;53.132;6.574;2023-04-24T01:20:35;0.22;;;0.10;;
57752;SDS011;43583;53.132;6.574;2023-04-24T01:23:04;0.32;;;0.20;;
57752;SDS011;43583;53.132;6.574;2023-04-24T01:25:30;0.85;;;0.20;;
57752;SDS011;43583;53.132;6.574;2023-04-24T01:27:56;0.55;;;0.20;;
57752;SDS011;43583;53.132;6.574;2023-04-24T01:30:22;0.52;;;0.22;;
57752;SDS011;43583;53.132;6.574;2023-04-24T01:32:48;0.95;;;0.20;;
57752;SDS011;43583;53.132;6.574;2023-04-24T01:35:14;0.60;;;0.30;;
57752;SDS011;43583;53.132;6.574;2023-04-24T01:37:39;0.70;;;0.30;;
57752;SDS011;43583;53.132;6.574;2023-04-24T01:40:06;0.60;;;0.30;;
57752;SDS011;43583;53.132;6.574;2023-04-24T01:42:32;0.80;;;0.40;;
57752;SDS011;43583;53.132;6.574;2023-04-24T01:44:59;1.30;;;0.20;;
57752;SDS011;43583;53.132;6.574;2023-04-24T01:47:26;0.57;;;0.30;;
57752;SDS011;43583;53.132;6.574;2023-04-24T01:49:53;1.20;;;0.55;;
57752;SDS011;43583;53.132;6.574;2023-04-24T01:52:20;0.82;;;0.50;;
57752;SDS011;43583;53.132;6.574;2023-04-24T01:54:46;0.80;;;0.40;;
57752;SDS011;43583;53.132;6.574;2023-04-24T01:57:12;1.02;;;0.50;;
57752;SDS011;43583;53.132;6.574;2023-04-24T01:59:39;1.33;;;0.70;;
57752;SDS011;43583;53.132;6.574;2023-04-24T02:02:05;2.97;;;0.70;;
57752;SDS011;43583;53.132;6.574;2023-04-24T02:04:31;1.30;;;0.98;;
57752;SDS011;43583;53.132;6.574;2023-04-24T02:06:56;1.27;;;0.90;;
57752;SDS011;43583;53.132;6.574;2023-04-24T02:09:22;1.60;;;1.17;;
57752;SDS011;43583;53.132;6.574;2023-04-24T02:11:48;1.48;;;0.93;;
57752;SDS011;43583;53.132;6.574;2023-04-24T02:14:13;1.45;;;1.15;;
57752;SDS011;43583;53.132;6.574;2023-04-24T02:16:39;1.25;;;1.05;;
57752;SDS011;43583;53.132;6.574;2023-04-24T02:19:04;2.60;;;1.55;;
57752;SDS011;43583;53.132;6.574;2023-04-24T02:21:30;1.80;;;1.35;;
57752;SDS011;43583;53.132;6.574;2023-04-24T02:23:56;1.83;;;1.25;;
57752;SDS011;43583;53.132;6.574;2023-04-24T02:26:22;2.42;;;1.58;;
57752;SDS011;43583;53.132;6.574;2023-04-24T02:28:48;2.92;;;1.50;;
57752;SDS011;43583;53.132;6.574;2023-04-24T02:31:14;3.08;;;2.05;;
57752;SDS011;43583;53.132;6.574;2023-04-24T02:33:39;2.50;;;1.80;;
57752;SDS011;43583;53.132;6.574;2023-04-24T02:36:05;2.83;;;2.28;;
57752;SDS011;43583;53.132;6.574;2023-04-24T02:38:31;2.88;;;2.35;;
57752;SDS011;43583;53.132;6.574;2023-04-24T02:40:56;4.68;;;2.28;;
57752;SDS011;43583;53.132;6.574;2023-04-24T02:43:22;2.92;;;2.15;;
57752;SDS011;43583;53.132;6.574;2023-04-24T02:45:47;5.10;;;2.40;;
57752;SDS011;43583;53.132;6.574;2023-04-24T02:48:13;3.10;;;2.35;;
57752;SDS011;43583;53.132;6.574;2023-04-24T02:50:39;3.10;;;2.40;;
57752;SDS011;43583;53.132;6.574;2023-04-24T02:53:05;4.03;;;2.67;;
57752;SDS011;43583;53.132;6.574;2023-04-24T02:55:31;4.32;;;2.92;;
57752;SDS011;43583;53.132;6.574;2023-04-24T02:57:56;2.50;;;2.00;;
57752;SDS011;43583;53.132;6.574;2023-04-24T03:00:22;3.50;;;2.30;;
57752;SDS011;43583;53.132;6.574;2023-04-24T03:02:47;3.72;;;2.70;;
57752;SDS011;43583;53.132;6.574;2023-04-24T03:05:14;4.43;;;2.72;;
57752;SDS011;43583;53.132;6.574;2023-04-24T03:07:40;3.70;;;2.70;;
57752;SDS011;43583;53.132;6.574;2023-04-24T03:10:06;4.88;;;2.47;;
57752;SDS011;43583;53.132;6.574;2023-04-24T03:12:32;4.15;;;3.42;;
57752;SDS011;43583;53.132;6.574;2023-04-24T03:14:57;4.22;;;3.83;;
57752;SDS011;43583;53.132;6.574;2023-04-24T03:17:23;5.28;;;4.13;;
57752;SDS011;43583;53.132;6.574;2023-04-24T03:19:48;5.35;;;3.80;;
57752;SDS011;43583;53.132;6.574;2023-04-24T03:22:14;5.47;;;4.32;;
57752;SDS011;43583;53.132;6.574;2023-04-24T03:24:39;7.40;;;5.60;;
57752;SDS011;43583;53.132;6.574;2023-04-24T03:27:05;7.32;;;5.40;;
57752;SDS011;43583;53.132;6.574;2023-04-24T03:29:31;7.60;;;5.45;;
57752;SDS011;43583;53.132;6.574;2023-04-24T03:31:56;9.13;;;7.00;;
57752;SDS011;43583;53.132;6.574;2023-04-24T03:34:22;6.43;;;5.70;;
57752;SDS011;43583;53.132;6.574;2023-04-24T03:36:47;8.85;;;6.18;;
57752;SDS011;43583;53.132;6.574;2023-04-24T03:39:13;7.47;;;6.10;;
57752;SDS011;43583;53.132;6.574;2023-04-24T03:41:38;7.43;;;5.88;;
57752;SDS011;43583;53.132;6.574;2023-04-24T03:44:04;7.85;;;5.10;;
57752;SDS011;43583;53.132;6.574;2023-04-24T03:46:29;5.55;;;5.05;;
57752;SDS011;43583;53.132;6.574;2023-04-24T03:48:55;6.63;;;4.78;;
57752;SDS011;43583;53.132;6.574;2023-04-24T03:51:20;5.78;;;5.20;;
57752;SDS011;43583;53.132;6.574;2023-04-24T03:53:46;5.97;;;5.38;;
57752;SDS011;43583;53.132;6.574;2023-04-24T03:56:12;6.47;;;4.07;;
57752;SDS011;43583;53.132;6.574;2023-04-24T03:58:37;5.25;;;4.75;;
57752;SDS011;43583;53.132;6.574;2023-04-24T04:01:03;5.45;;;4.63;;
57752;SDS011;43583;53.132;6.574;2023-04-24T04:03:29;5.35;;;4.78;;
57752;SDS011;43583;53.132;6.574;2023-04-24T04:05:54;5.25;;;4.53;;
57752;SDS011;43583;53.132;6.574;2023-04-24T04:08:20;4.93;;;4.50;;
57752;SDS011;43583;53.132;6.574;2023-04-24T04:10:45;4.47;;;3.90;;
57752;SDS011;43583;53.132;6.574;2023-04-24T04:13:11;4.93;;;4.18;;
57752;SDS011;43583;53.132;6.574;2023-04-24T04:15:37;4.63;;;3.95;;
57752;SDS011;43583;53.132;6.574;2023-04-24T04:18:02;4.47;;;3.80;;
57752;SDS011;43583;53.132;6.574;2023-04-24T04:20:28;3.80;;;3.08;;
57752;SDS011;43583;53.132;6.574;2023-04-24T04:22:53;5.80;;;3.97;;
57752;SDS011;43583;53.132;6.574;2023-04-24T04:25:19;4.65;;;3.42;;
57752;SDS011;43583;53.132;6.574;2023-04-24T04:27:45;4.78;;;3.28;;
57752;SDS011;43583;53.132;6.574;2023-04-24T04:30:12;3.65;;;2.78;;
57752;SDS011;43583;53.132;6.574;2023-04-24T04:32:38;3.28;;;2.70;;
57752;SDS011;43583;53.132;6.574;2023-04-24T04:35:04;3.80;;;2.55;;
57752;SDS011;43583;53.132;6.574;2023-04-24T04:37:30;3.17;;;2.38;;
57752;SDS011;43583;53.132;6.574;2023-04-24T04:39:56;3.30;;;2.33;;
57752;SDS011;43583;53.132;6.574;2023-04-24T04:42:23;4.07;;;2.67;;
57752;SDS011;43583;53.132;6.574;2023-04-24T04:44:49;5.85;;;2.80;;
57752;SDS011;43583;53.132;6.574;2023-04-24T04:47:15;3.05;;;2.40;;
57752;SDS011;43583;53.132;6.574;2023-04-24T04:49:42;4.10;;;2.38;;
57752;SDS011;43583;53.132;6.574;2023-04-24T04:52:08;3.47;;;2.45;;
57752;SDS011;43583;53.132;6.574;2023-04-24T04:54:34;2.90;;;2.30;;
57752;SDS011;43583;53.132;6.574;2023-04-24T04:57:00;3.13;;;2.10;;
57752;SDS011;43583;53.132;6.574;2023-04-24T04:59:26;3.45;;;2.58;;
57752;SDS011;43583;53.132;6.574;2023-04-24T05:01:52;3.17;;;2.40;;
57752;SDS011;43583;53.132;6.574;2023-04-24T05:04:18;2.63;;;1.92;;
57752;SDS011;43583;53.132;6.574;2023-04-24T05:06:43;2.22;;;1.67;;
57752;SDS011;43583;53.132;6.574;2023-04-24T05:09:09;2.90;;;2.25;;
57752;SDS011;43583;53.132;6.574;2023-04-24T05:11:35;2.80;;;1.92;;
57752;SDS011;43583;53.132;6.574;2023-04-24T05:14:01;3.00;;;2.33;;
57752;SDS011;43583;53.132;6.574;2023-04-24T05:16:26;2.60;;;2.13;;
57752;SDS011;43583;53.132;6.574;2023-04-24T05:18:52;4.47;;;1.52;;
57752;SDS011;43583;53.132;6.574;2023-04-24T05:21:17;1.58;;;0.80;;
57752;SDS011;43583;53.132;6.574;2023-04-24T05:23:43;1.17;;;0.50;;
57752;SDS011;43583;53.132;6.574;2023-04-24T05:26:08;1.33;;;0.93;;
57752;SDS011;43583;53.132;6.574;2023-04-24T05:28:34;2.38;;;1.00;;
57752;SDS011;43583;53.132;6.574;2023-04-24T05:31:01;2.45;;;0.95;;
57752;SDS011;43583;53.132;6.574;2023-04-24T05:33:27;3.25;;;1.48;;
57752;SDS011;43583;53.132;6.574;2023-04-24T05:35:53;1.45;;;0.77;;
57752;SDS011;43583;53.132;6.574;2023-04-24T05:38:18;2.53;;;0.52;;
57752;SDS011;43583;53.132;6.574;2023-04-24T05:40:45;1.35;;;0.80;;
57752;SDS011;43583;53.132;6.574;2023-04-24T05:43:11;1.40;;;0.30;;
57752;SDS011;43583;53.132;6.574;2023-04-24T05:45:37;0.55;;;0.20;;
57752;SDS011;43583;53.132;6.574;2023-04-24T05:48:03;1.67;;;0.50;;
57752;SDS011;43583;53.132;6.574;2023-04-24T05:50:29;0.55;;;0.20;;
57752;SDS011;43583;53.132;6.574;2023-04-24T05:52:55;0.73;;;0.30;;
57752;SDS011;43583;53.132;6.574;2023-04-24T05:55:23;0.50;;;0.15;;
57752;SDS011;43583;53.132;6.574;2023-04-24T05:57:49;0.60;;;0.15;;
57752;SDS011;43583;53.132;6.574;2023-04-24T06:00:15;0.60;;;0.20;;
57752;SDS011;43583;53.132;6.574;2023-04-24T06:02:41;0.93;;;0.25;;
57752;SDS011;43583;53.132;6.574;2023-04-24T06:05:06;1.38;;;0.30;;
57752;SDS011;43583;53.132;6.574;2023-04-24T06:07:33;0.70;;;0.30;;
57752;SDS011;43583;53.132;6.574;2023-04-24T06:09:59;1.25;;;0.28;;
57752;SDS011;43583;53.132;6.574;2023-04-24T06:12:25;0.68;;;0.20;;
57752;SDS011;43583;53.132;6.574;2023-04-24T06:14:51;1.75;;;0.30;;
57752;SDS011;43583;53.132;6.574;2023-04-24T06:17:16;1.00;;;0.38;;
57752;SDS011;43583;53.132;6.574;2023-04-24T06:19:42;1.20;;;0.70;;
57752;SDS011;43583;53.132;6.574;2023-04-24T06:22:08;2.85;;;0.45;;
57752;SDS011;43583;53.132;6.574;2023-04-24T06:24:34;1.00;;;0.40;;
57752;SDS011;43583;53.132;6.574;2023-04-24T06:27:00;3.10;;;0.93;;
57752;SDS011;43583;53.132;6.574;2023-04-24T06:29:26;2.50;;;1.27;;
57752;SDS011;43583;53.132;6.574;2023-04-24T06:31:52;2.05;;;0.73;;
57752;SDS011;43583;53.132;6.574;2023-04-24T06:34:18;1.90;;;0.80;;
57752;SDS011;43583;53.132;6.574;2023-04-24T06:36:43;3.40;;;1.15;;
57752;SDS011;43583;53.132;6.574;2023-04-24T06:39:09;3.33;;;0.95;;
57752;SDS011;43583;53.132;6.574;2023-04-24T06:41:35;3.33;;;1.27;;
57752;SDS011;43583;53.132;6.574;2023-04-24T06:44:01;2.40;;;1.38;;
57752;SDS011;43583;53.132;6.574;2023-04-24T06:46:26;6.53;;;1.90;;
57752;SDS011;43583;53.132;6.574;2023-04-24T06:48:53;5.00;;;1.55;;
57752;SDS011;43583;53.132;6.574;2023-04-24T06:51:22;2.85;;;1.95;;
57752;SDS011;43583;53.132;6.574;2023-04-24T06:53:49;2.90;;;1.75;;
57752;SDS011;43583;53.132;6.574;2023-04-24T06:56:15;4.38;;;1.92;;
57752;SDS011;43583;53.132;6.574;2023-04-24T06:58:40;4.57;;;1.75;;
57752;SDS011;43583;53.132;6.574;2023-04-24T07:01:06;3.28;;;2.35;;
57752;SDS011;43583;53.132;6.574;2023-04-24T07:03:32;2.55;;;2.10;;
57752;SDS011;43583;53.132;6.574;2023-04-24T07:05:57;3.33;;;1.65;;
57752;SDS011;43583;53.132;6.574;2023-04-24T07:08:23;3.72;;;1.30;;
57752;SDS011;43583;53.132;6.574;2023-04-24T07:10:49;1.35;;;0.85;;
57752;SDS011;43583;53.132;6.574;2023-04-24T07:13:16;6.70;;;1.58;;
57752;SDS011;43583;53.132;6.574;2023-04-24T07:15:42;1.23;;;0.40;;
57752;SDS011;43583;53.132;6.574;2023-04-24T07:18:08;1.38;;;0.55;;
57752;SDS011;43583;53.132;6.574;2023-04-24T07:20:33;1.23;;;0.60;;
57752;SDS011;43583;53.132;6.574;2023-04-24T07:22:59;0.70;;;0.40;;
57752;SDS011;43583;53.132;6.574;2023-04-24T07:25:25;1.60;;;0.30;;
57752;SDS011;43583;53.132;6.574;2023-04-24T07:27:50;0.80;;;0.30;;
57752;SDS011;43583;53.132;6.574;2023-04-24T07:30:17;1.88;;;0.50;;
57752;SDS011;43583;53.132;6.574;2023-04-24T07:32:42;3.65;;;0.32;;
57752;SDS011;43583;53.132;6.574;2023-04-24T07:35:08;1.15;;;0.40;;
57752;SDS011;43583;53.132;6.574;2023-04-24T07:37:34;2.38;;;0.50;;
57752;SDS011;43583;53.132;6.574;2023-04-24T07:40:00;2.83;;;0.40;;
57752;SDS011;43583;53.132;6.574;2023-04-24T07:42:26;3.28;;;0.45;;
57752;SDS011;43583;53.132;6.574;2023-04-24T07:44:52;1.20;;;0.43;;
57752;SDS011;43583;53.132;6.574;2023-04-24T07:47:18;1.50;;;1.00;;
57752;SDS011;43583;53.132;6.574;2023-04-24T07:49:44;1.10;;;0.35;;
57752;SDS011;43583;53.132;6.574;2023-04-24T07:52:10;2.22;;;0.20;;
57752;SDS011;43583;53.132;6.574;2023-04-24T07:54:35;2.10;;;0.20;;
57752;SDS011;43583;53.132;6.574;2023-04-24T07:57:02;2.60;;;0.30;;
57752;SDS011;43583;53.132;6.574;2023-04-24T07:59:28;7.60;;;1.70;;
57752;SDS011;43583;53.132;6.574;2023-04-24T08:01:53;2.15;;;0.30;;
57752;SDS011;43583;53.132;6.574;2023-04-24T08:04:19;3.72;;;0.98;;
57752;SDS011;43583;53.132;6.574;2023-04-24T08:06:46;3.00;;;0.57;;
57752;SDS011;43583;53.132;6.574;2023-04-24T08:09:12;7.70;;;1.83;;
57752;SDS011;43583;53.132;6.574;2023-04-24T08:11:38;4.82;;;2.40;;
57752;SDS011;43583;53.132;6.574;2023-04-24T08:14:03;7.28;;;2.72;;
57752;SDS011;43583;53.132;6.574;2023-04-24T08:16:29;7.57;;;3.63;;
57752;SDS011;43583;53.132;6.574;2023-04-24T08:18:54;11.10;;;4.88;;
57752;SDS011;43583;53.132;6.574;2023-04-24T08:21:20;9.50;;;5.10;;
57752;SDS011;43583;53.132;6.574;2023-04-24T08:23:46;10.15;;;5.35;;
57752;SDS011;43583;53.132;6.574;2023-04-24T08:26:12;12.60;;;5.68;;
57752;SDS011;43583;53.132;6.574;2023-04-24T08:28:38;10.77;;;5.28;;
57752;SDS011;43583;53.132;6.574;2023-04-24T08:31:03;12.52;;;6.93;;
57752;SDS011;43583;53.132;6.574;2023-04-24T08:33:30;16.30;;;6.65;;
57752;SDS011;43583;53.132;6.574;2023-04-24T08:36:02;17.02;;;8.32;;
57752;SDS011;43583;53.132;6.574;2023-04-24T08:38:29;13.93;;;6.03;;
57752;SDS011;43583;53.132;6.574;2023-04-24T08:40:55;11.68;;;7.05;;
57752;SDS011;43583;53.132;6.574;2023-04-24T08:43:23;15.35;;;6.63;;
57752;SDS011;43583;53.132;6.574;2023-04-24T08:45:49;12.05;;;6.38;;
57752;SDS011;43583;53.132;6.574;2023-04-24T08:48:15;11.65;;;6.70;;
57752;SDS011;43583;53.132;6.574;2023-04-24T08:50:42;13.10;;;6.30;;
57752;SDS011;43583;53.132;6.574;2023-04-24T08:53:09;8.57;;;5.65;;
57752;SDS011;43583;53.132;6.574;2023-04-24T08:55:36;9.88;;;6.18;;
57752;SDS011;43583;53.132;6.574;2023-04-24T08:58:02;14.68;;;6.13;;
57752;SDS011;43583;53.132;6.574;2023-04-24T09:00:29;14.40;;;5.70;;
57752;SDS011;43583;53.132;6.574;2023-04-24T09:02:55;14.57;;;5.78;;
57752;SDS011;43583;53.132;6.574;2023-04-24T09:05:21;10.90;;;6.60;;
57752;SDS011;43583;53.132;6.574;2023-04-24T09:07:53;11.02;;;6.13;;
57752;SDS011;43583;53.132;6.574;2023-04-24T09:10:20;12.00;;;6.32;;
57752;SDS011;43583;53.132;6.574;2023-04-24T09:12:47;12.18;;;6.85;;
57752;SDS011;43583;53.132;6.574;2023-04-24T09:15:12;15.30;;;7.07;;
57752;SDS011;43583;53.132;6.574;2023-04-24T09:17:38;12.00;;;6.35;;
57752;SDS011;43583;53.132;6.574;2023-04-24T09:20:04;14.75;;;5.78;;
57752;SDS011;43583;53.132;6.574;2023-04-24T09:22:30;9.65;;;5.47;;
57752;SDS011;43583;53.132;6.574;2023-04-24T09:25:02;9.98;;;4.75;;
57752;SDS011;43583;53.132;6.574;2023-04-24T09:27:29;7.68;;;4.28;;
57752;SDS011;43583;53.132;6.574;2023-04-24T09:29:56;5.97;;;3.45;;
57752;SDS011;43583;53.132;6.574;2023-04-24T09:32:22;5.78;;;3.80;;
57752;SDS011;43583;53.132;6.574;2023-04-24T09:35:04;5.80;;;3.63;;
57752;SDS011;43583;53.132;6.574;2023-04-24T09:37:40;5.38;;;3.53;;
57752;SDS011;43583;53.132;6.574;2023-04-24T09:40:08;11.70;;;3.38;;
57752;SDS011;43583;53.132;6.574;2023-04-24T09:42:39;7.22;;;3.83;;
57752;SDS011;43583;53.132;6.574;2023-04-24T09:45:08;8.60;;;3.03;;
57752;SDS011;43583;53.132;6.574;2023-04-24T09:47:36;6.72;;;3.53;;
57752;SDS011;43583;53.132;6.574;2023-04-24T09:50:12;8.73;;;3.63;;
57752;SDS011;43583;53.132;6.574;2023-04-24T09:52:39;4.97;;;2.75;;
57752;SDS011;43583;53.132;6.574;2023-04-24T09:55:13;8.23;;;2.30;;
57752;SDS011;43583;53.132;6.574;2023-04-24T09:57:52;5.85;;;3.05;;
57752;SDS011;43583;53.132;6.574;2023-04-24T10:00:33;11.00;;;3.10;;
57752;SDS011;43583;53.132;6.574;2023-04-24T10:03:02;8.07;;;2.42;;
57752;SDS011;43583;53.132;6.574;2023-04-24T10:05:31;8.30;;;2.42;;
57752;SDS011;43583;53.132;6.574;2023-04-24T10:08:07;9.30;;;2.63;;
57752;SDS011;43583;53.132;6.574;2023-04-24T10:10:35;12.13;;;3.33;;
57752;SDS011;43583;53.132;6.574;2023-04-24T10:13:03;6.28;;;2.33;;
57752;SDS011;43583;53.132;6.574;2023-04-24T10:15:29;4.85;;;2.38;;
57752;SDS011;43583;53.132;6.574;2023-04-24T10:17:55;3.13;;;2.53;;
57752;SDS011;43583;53.132;6.574;2023-04-24T10:20:25;6.72;;;1.20;;
57752;SDS011;43583;53.132;6.574;2023-04-24T10:22:53;3.20;;;1.02;;
57752;SDS011;43583;53.132;6.574;2023-04-24T10:25:20;4.97;;;0.88;;
57752;SDS011;43583;53.132;6.574;2023-04-24T10:27:50;2.47;;;0.90;;
57752;SDS011;43583;53.132;6.574;2023-04-24T10:30:17;7.20;;;0.70;;
57752;SDS011;43583;53.132;6.574;2023-04-24T10:32:44;3.83;;;0.55;;
57752;SDS011;43583;53.132;6.574;2023-04-24T10:35:14;2.10;;;0.60;;
57752;SDS011;43583;53.132;6.574;2023-04-24T10:37:43;5.95;;;0.90;;
57752;SDS011;43583;53.132;6.574;2023-04-24T10:40:31;2.72;;;0.50;;
57752;SDS011;43583;53.132;6.574;2023-04-24T10:42:59;3.28;;;1.13;;
57752;SDS011;43583;53.132;6.574;2023-04-24T10:45:32;4.63;;;0.50;;
57752;SDS011;43583;53.132;6.574;2023-04-24T10:48:02;3.97;;;0.70;;
57752;SDS011;43583;53.132;6.574;2023-04-24T10:50:45;1.88;;;0.50;;
57752;SDS011;43583;53.132;6.574;2023-04-24T10:53:22;5.57;;;0.38;;
57752;SDS011;43583;53.132;6.574;2023-04-24T10:55:52;2.45;;;0.32;;
57752;SDS011;43583;53.132;6.574;2023-04-24T10:58:37;4.82;;;0.40;;
57752;SDS011;43583;53.132;6.574;2023-04-24T11:01:05;4.22;;;0.43;;
57752;SDS011;43583;53.132;6.574;2023-04-24T11:03:33;3.08;;;0.40;;
57752;SDS011;43583;53.132;6.574;2023-04-24T11:08:32;5.78;;;0.60;;
57752;SDS011;43583;53.132;6.574;2023-04-24T11:11:08;4.97;;;0.85;;
57752;SDS011;43583;53.132;6.574;2023-04-24T11:19:00;3.55;;;0.22;;
57752;SDS011;43583;53.132;6.574;2023-04-24T11:21:31;3.28;;;0.32;;
57752;SDS011;43583;53.132;6.574;2023-04-24T11:29:58;5.65;;;1.20;;
57752;SDS011;43583;53.132;6.574;2023-04-24T11:32:27;7.18;;;0.73;;
57752;SDS011;43583;53.132;6.574;2023-04-24T11:34:54;4.75;;;0.25;;
57752;SDS011;43583;53.132;6.574;2023-04-24T11:37:27;3.20;;;0.43;;
57752;SDS011;43583;53.132;6.574;2023-04-24T11:40:02;3.17;;;0.75;;
57752;SDS011;43583;53.132;6.574;2023-04-24T11:42:33;3.78;;;0.47;;
57752;SDS011;43583;53.132;6.574;2023-04-24T11:47:38;3.78;;;0.28;;
57752;SDS011;43583;53.132;6.574;2023-04-24T11:50:05;2.78;;;0.35;;
57752;SDS011;43583;53.132;6.574;2023-04-24T11:52:33;5.38;;;0.65;;
57752;SDS011;43583;53.132;6.574;2023-04-24T11:55:02;4.90;;;0.20;;
57752;SDS011;43583;53.132;6.574;2023-04-24T11:57:28;2.95;;;0.20;;
57752;SDS011;43583;53.132;6.574;2023-04-24T12:00:00;2.00;;;0.20;;
57752;SDS011;43583;53.132;6.574;2023-04-24T12:02:26;3.20;;;0.32;;
57752;SDS011;43583;53.132;6.574;2023-04-24T12:04:52;3.15;;;0.85;;
57752;SDS011;43583;53.132;6.574;2023-04-24T12:07:18;1.88;;;0.15;;
57752;SDS011;43583;53.132;6.574;2023-04-24T12:09:45;0.90;;;0.20;;
57752;SDS011;43583;53.132;6.574;2023-04-24T12:12:13;0.93;;;0.20;;
57752;SDS011;43583;53.132;6.574;2023-04-24T12:14:47;2.95;;;0.20;;
57752;SDS011;43583;53.132;6.574;2023-04-24T12:17:15;4.35;;;0.60;;
57752;SDS011;43583;53.132;6.574;2023-04-24T12:19:45;2.47;;;0.10;;
57752;SDS011;43583;53.132;6.574;2023-04-24T12:22:12;0.98;;;0.10;;
57752;SDS011;43583;53.132;6.574;2023-04-24T12:24:55;1.40;;;0.20;;
57752;SDS011;43583;53.132;6.574;2023-04-24T12:27:25;2.08;;;0.10;;
57752;SDS011;43583;53.132;6.574;2023-04-24T12:29:52;3.88;;;0.25;;
57752;SDS011;43583;53.132;6.574;2023-04-24T12:32:21;2.58;;;0.25;;
57752;SDS011;43583;53.132;6.574;2023-04-24T12:34:48;2.15;;;0.20;;
57752;SDS011;43583;53.132;6.574;2023-04-24T12:37:15;1.85;;;0.20;;
57752;SDS011;43583;53.132;6.574;2023-04-24T12:39:44;1.48;;;0.15;;
57752;SDS011;43583;53.132;6.574;2023-04-24T12:42:33;1.35;;;0.10;;
57752;SDS011;43583;53.132;6.574;2023-04-24T12:45:09;0.90;;;0.10;;
57752;SDS011;43583;53.132;6.574;2023-04-24T12:47:37;0.75;;;0.10;;
57752;SDS011;43583;53.132;6.574;2023-04-24T12:50:03;2.75;;;0.10;;
57752;SDS011;43583;53.132;6.574;2023-04-24T12:52:29;3.63;;;0.25;;
57752;SDS011;43583;53.132;6.574;2023-04-24T12:54:59;2.50;;;0.10;;
57752;SDS011;43583;53.132;6.574;2023-04-24T12:57:26;0.60;;;0.10;;
57752;SDS011;43583;53.132;6.574;2023-04-24T12:59:56;2.38;;;0.20;;
57752;SDS011;43583;53.132;6.574;2023-04-24T13:02:27;3.17;;;0.25;;
57752;SDS011;43583;53.132;6.574;2023-04-24T13:04:55;0.60;;;0.10;;
57752;SDS011;43583;53.132;6.574;2023-04-24T13:07:21;4.50;;;0.10;;
57752;SDS011;43583;53.132;6.574;2023-04-24T13:09:47;7.40;;;0.73;;
57752;SDS011;43583;53.132;6.574;2023-04-24T13:12:14;4.82;;;0.10;;
57752;SDS011;43583;53.132;6.574;2023-04-24T13:14:40;1.02;;;0.10;;
57752;SDS011;43583;53.132;6.574;2023-04-24T13:17:06;1.45;;;0.10;;
57752;SDS011;43583;53.132;6.574;2023-04-24T13:19:36;3.13;;;0.38;;
57752;SDS011;43583;53.132;6.574;2023-04-24T13:22:03;4.25;;;0.13;;
57752;SDS011;43583;53.132;6.574;2023-04-24T13:24:28;2.67;;;0.35;;
57752;SDS011;43583;53.132;6.574;2023-04-24T13:26:54;1.38;;;0.55;;
57752;SDS011;43583;53.132;6.574;2023-04-24T13:29:21;0.77;;;0.17;;
57752;SDS011;43583;53.132;6.574;2023-04-24T13:31:49;4.47;;;0.10;;
57752;SDS011;43583;53.132;6.574;2023-04-24T13:34:16;0.95;;;0.00;;
57752;SDS011;43583;53.132;6.574;2023-04-24T13:36:42;0.55;;;0.00;;
57752;SDS011;43583;53.132;6.574;2023-04-24T13:39:08;1.70;;;0.20;;
57752;SDS011;43583;53.132;6.574;2023-04-24T13:41:35;2.95;;;0.20;;
57752;SDS011;43583;53.132;6.574;2023-04-24T13:44:01;1.38;;;0.00;;
57752;SDS011;43583;53.132;6.574;2023-04-24T13:46:27;3.72;;;0.20;;
57752;SDS011;43583;53.132;6.574;2023-04-24T13:48:53;1.67;;;0.03;;
57752;SDS011;43583;53.132;6.574;2023-04-24T13:51:19;0.32;;;0.00;;
57752;SDS011;43583;53.132;6.574;2023-04-24T13:53:44;2.60;;;0.00;;
57752;SDS011;43583;53.132;6.574;2023-04-24T13:56:10;1.95;;;0.20;;
57752;SDS011;43583;53.132;6.574;2023-04-24T13:58:37;0.30;;;0.00;;
57752;SDS011;43583;53.132;6.574;2023-04-24T14:01:03;2.65;;;0.10;;
57752;SDS011;43583;53.132;6.574;2023-04-24T14:03:28;1.10;;;0.10;;
57752;SDS011;43583;53.132;6.574;2023-04-24T14:05:54;2.13;;;0.10;;
57752;SDS011;43583;53.132;6.574;2023-04-24T14:08:20;1.42;;;0.08;;
57752;SDS011;43583;53.132;6.574;2023-04-24T14:10:46;3.67;;;0.20;;
57752;SDS011;43583;53.132;6.574;2023-04-24T14:13:12;0.17;;;0.08;;
57752;SDS011;43583;53.132;6.574;2023-04-24T14:15:38;1.58;;;0.10;;
57752;SDS011;43583;53.132;6.574;2023-04-24T14:18:03;4.68;;;0.43;;
57752;SDS011;43583;53.132;6.574;2023-04-24T14:20:29;4.45;;;0.20;;
57752;SDS011;43583;53.132;6.574;2023-04-24T14:22:58;3.20;;;0.20;;
57752;SDS011;43583;53.132;6.574;2023-04-24T14:25:24;3.92;;;0.60;;
57752;SDS011;43583;53.132;6.574;2023-04-24T14:27:50;4.15;;;0.20;;
57752;SDS011;43583;53.132;6.574;2023-04-24T14:30:16;5.55;;;0.47;;
57752;SDS011;43583;53.132;6.574;2023-04-24T14:32:42;3.78;;;0.22;;
57752;SDS011;43583;53.132;6.574;2023-04-24T14:35:07;3.63;;;0.57;;
57752;SDS011;43583;53.132;6.574;2023-04-24T14:37:33;7.50;;;0.70;;
57752;SDS011;43583;53.132;6.574;2023-04-24T14:39:59;4.65;;;0.50;;
57752;SDS011;43583;53.132;6.574;2023-04-24T14:42:25;2.25;;;0.60;;
57752;SDS011;43583;53.132;6.574;2023-04-24T14:44:50;3.83;;;0.43;;
57752;SDS011;43583;53.132;6.574;2023-04-24T14:47:16;4.47;;;0.77;;
57752;SDS011;43583;53.132;6.574;2023-04-24T14:49:46;2.80;;;0.40;;
57752;SDS011;43583;53.132;6.574;2023-04-24T14:52:13;3.53;;;0.50;;
57752;SDS011;43583;53.132;6.574;2023-04-24T14:54:38;3.58;;;1.35;;
57752;SDS011;43583;53.132;6.574;2023-04-24T14:57:04;1.92;;;0.40;;
57752;SDS011;43583;53.132;6.574;2023-04-24T14:59:30;3.22;;;1.15;;